createdAt,value
2022-10-14T00:05:12.449Z,237.90
2022-10-14T00:08:12.020Z,162.60
2022-10-14T00:10:42.338Z,143.60
2022-10-14T00:13:13.323Z,196.10
2022-10-14T00:15:42.312Z,314.50
2022-10-14T00:18:11.330Z,300.50
2022-10-14T00:36:24.678Z,68.80
2022-10-14T01:19:52.102Z,37.40
2022-10-14T01:22:32.421Z,26.30
2022-10-14T01:25:09.407Z,25.60
2022-10-14T01:28:15.969Z,30.60
2022-10-14T01:31:06.214Z,53.30
2022-10-14T01:33:40.359Z,34.60
2022-10-14T01:36:28.168Z,52.90
2022-10-14T01:39:15.992Z,86.60
2022-10-14T01:41:49.975Z,73.10
2022-10-14T01:44:22.597Z,47.80
2022-10-14T01:46:53.968Z,31.30
2022-10-14T01:49:45.012Z,47.10
2022-10-14T01:52:28.022Z,28.50
2022-10-14T01:55:00.038Z,53.40
2022-10-14T01:57:31.903Z,35.80
2022-10-14T02:00:02.132Z,36.50
2022-10-14T02:03:15.093Z,41.50
2022-10-14T02:06:03.711Z,36.90
2022-10-14T02:09:05.801Z,39.40
2022-10-14T02:11:45.959Z,38.80
2022-10-14T02:14:31.462Z,46.70
2022-10-14T02:17:07.191Z,29.40
2022-10-14T02:20:12.038Z,31.20
2022-10-14T02:22:50.510Z,27.00
2022-10-14T02:25:24.115Z,25.80
2022-10-14T02:27:53.324Z,26.60
2022-10-14T02:30:21.740Z,23.20
2022-10-14T02:33:00.518Z,22.20
2022-10-14T02:35:31.589Z,22.70
2022-10-14T02:38:00.553Z,18.90
2022-10-14T02:40:39.480Z,16.90
2022-10-14T02:43:10.216Z,16.60
2022-10-14T02:45:39.465Z,16.10
2022-10-14T02:48:08.656Z,13.80
2022-10-14T02:50:38.359Z,15.10
2022-10-14T02:53:06.220Z,14.20
2022-10-14T02:55:34.087Z,11.40
2022-10-14T02:58:02.055Z,11.70
2022-10-14T03:00:31.370Z,12.00
2022-10-14T03:02:59.520Z,14.90
2022-10-14T03:05:27.662Z,14.20
2022-10-14T03:07:55.810Z,13.60
2022-10-14T03:10:24.771Z,13.00
2022-10-14T03:12:52.717Z,24.60
2022-10-14T03:15:27.283Z,23.40
2022-10-14T03:17:55.461Z,22.70
2022-10-14T03:20:27.881Z,22.30
2022-10-14T03:22:57.518Z,21.60
2022-10-14T03:25:26.327Z,19.50
2022-10-14T03:28:14.602Z,27.60
2022-10-14T03:35:45.321Z,22.00
2022-10-14T03:38:17.406Z,21.30
2022-10-14T03:40:46.594Z,35.90
2022-10-14T03:43:14.677Z,22.00
2022-10-14T03:45:54.898Z,24.20
2022-10-14T03:48:24.828Z,29.20
2022-10-14T03:50:56.888Z,37.50
2022-10-14T03:53:25.150Z,29.10
2022-10-14T03:55:53.398Z,22.10
2022-10-14T03:58:22.441Z,29.70
2022-10-14T04:00:54.171Z,24.50
2022-10-14T04:04:00.433Z,30.60
2022-10-14T04:06:28.698Z,24.30
2022-10-14T04:08:58.352Z,32.50
2022-10-14T04:11:29.679Z,21.60
2022-10-14T04:14:02.540Z,23.20
2022-10-14T04:16:31.668Z,21.00
2022-10-14T04:19:07.573Z,23.80
2022-10-14T04:21:35.511Z,20.10
2022-10-14T04:24:08.055Z,23.40
2022-10-14T04:26:52.827Z,30.50
2022-10-14T04:29:31.533Z,30.80
2022-10-14T04:32:04.451Z,31.80
2022-10-14T04:34:35.764Z,44.20
2022-10-14T04:37:03.770Z,72.00
2022-10-14T04:40:05.387Z,66.40
2022-10-14T04:42:34.068Z,48.40
2022-10-14T04:45:05.365Z,25.10
2022-10-14T04:47:48.337Z,23.50
2022-10-14T04:50:18.624Z,22.00
2022-10-14T04:53:10.589Z,37.90
2022-10-14T04:55:49.705Z,23.80
2022-10-14T04:58:18.275Z,27.30
2022-10-14T05:00:48.093Z,34.20
2022-10-14T05:03:32.500Z,31.60
2022-10-14T05:06:00.749Z,26.40
2022-10-14T05:08:28.686Z,28.20
2022-10-14T05:11:00.193Z,29.80
2022-10-14T05:13:44.122Z,31.10
2022-10-14T05:16:12.064Z,48.10
2022-10-14T05:18:41.495Z,35.40
2022-10-14T05:21:11.808Z,34.10
2022-10-14T05:24:05.820Z,24.20
2022-10-14T05:26:34.469Z,71.10
2022-10-14T05:29:04.996Z,61.60
2022-10-14T05:31:32.946Z,25.80
2022-10-14T05:34:14.115Z,33.30
2022-10-14T05:36:41.956Z,38.70
2022-10-14T05:39:11.611Z,43.60
2022-10-14T05:41:39.994Z,30.70
2022-10-14T05:44:10.812Z,28.30
2022-10-14T05:46:39.129Z,26.00
2022-10-14T05:49:07.050Z,23.40
2022-10-14T05:51:36.638Z,25.60
2022-10-14T05:54:11.552Z,22.50
2022-10-14T05:56:42.203Z,25.80
2022-10-14T05:59:11.220Z,25.60
2022-10-14T06:01:40.436Z,24.40
2022-10-14T06:04:08.400Z,20.60
2022-10-14T06:06:36.296Z,21.70
2022-10-14T06:09:08.965Z,21.80
2022-10-14T06:11:39.593Z,23.40
2022-10-14T06:14:07.813Z,26.10
2022-10-14T06:16:35.877Z,24.10
2022-10-14T06:19:05.751Z,21.10
2022-10-14T06:21:33.642Z,25.50
2022-10-14T06:24:01.664Z,28.60
2022-10-14T06:26:29.638Z,23.60
2022-10-14T06:28:57.655Z,37.00
2022-10-14T06:31:29.842Z,39.80
2022-10-14T06:34:00.860Z,44.80
2022-10-14T06:36:28.682Z,45.20
2022-10-14T06:38:56.609Z,51.50
2022-10-14T06:41:24.771Z,49.30
2022-10-14T06:43:53.158Z,44.50
2022-10-14T06:46:21.112Z,33.40
2022-10-14T06:48:50.449Z,32.20
2022-10-14T06:51:18.611Z,45.30
2022-10-14T06:53:46.416Z,46.00
2022-10-14T06:56:14.720Z,38.10
2022-10-14T06:58:42.625Z,39.80
2022-10-14T07:01:10.438Z,45.90
2022-10-14T07:03:39.450Z,44.90
2022-10-14T07:06:08.683Z,49.60
2022-10-14T07:08:36.672Z,51.70
2022-10-14T07:11:05.696Z,45.50
2022-10-14T07:13:36.469Z,55.80
2022-10-14T07:16:04.950Z,53.00
2022-10-14T07:18:32.923Z,49.10
2022-10-14T07:21:05.117Z,44.20
2022-10-14T07:23:33.086Z,36.80
2022-10-14T07:26:01.367Z,41.40
2022-10-14T07:28:29.545Z,52.20
2022-10-14T07:31:03.048Z,44.10
2022-10-14T07:33:31.153Z,38.10
2022-10-14T07:36:05.480Z,37.70
2022-10-14T07:38:34.012Z,41.40
2022-10-14T07:41:05.282Z,41.00
2022-10-14T07:43:34.406Z,39.70
2022-10-14T07:46:07.565Z,38.80
2022-10-14T07:48:52.597Z,43.30
2022-10-14T07:51:24.802Z,43.40
2022-10-14T07:53:53.391Z,43.40
2022-10-14T07:56:22.522Z,39.90
2022-10-14T07:58:50.479Z,44.60
2022-10-14T08:01:19.520Z,31.40
2022-10-14T08:03:48.550Z,31.90
2022-10-14T08:06:16.942Z,32.70
2022-10-14T08:08:45.125Z,38.80
2022-10-14T08:11:20.479Z,36.20
2022-10-14T08:13:49.872Z,31.80
2022-10-14T08:16:27.368Z,31.40
2022-10-14T08:18:57.815Z,30.90
2022-10-14T08:21:26.232Z,29.50
2022-10-14T08:23:55.123Z,29.40
2022-10-14T08:26:25.902Z,32.60
2022-10-14T08:28:53.835Z,28.30
2022-10-14T08:31:22.158Z,41.80
2022-10-14T08:33:50.182Z,27.20
2022-10-14T08:36:19.501Z,29.80
2022-10-14T08:38:48.756Z,26.00
2022-10-14T08:41:26.156Z,41.20
2022-10-14T08:44:13.070Z,33.20
2022-10-14T08:49:42.252Z,31.30
2022-10-14T08:52:18.202Z,31.70
2022-10-14T08:54:51.374Z,32.70
2022-10-14T08:57:21.932Z,28.90
2022-10-14T08:59:49.911Z,35.90
2022-10-14T09:02:35.059Z,32.90
2022-10-14T09:05:05.114Z,26.20
2022-10-14T09:07:35.824Z,28.30
2022-10-14T09:10:11.530Z,30.60
2022-10-14T09:12:40.518Z,30.90
2022-10-14T09:15:09.244Z,27.70
2022-10-14T09:17:48.520Z,23.20
2022-10-14T09:20:22.258Z,25.10
2022-10-14T09:22:55.483Z,23.40
2022-10-14T09:25:23.389Z,22.10
2022-10-14T09:27:51.472Z,20.70
2022-10-14T09:30:19.410Z,22.30
2022-10-14T09:32:55.680Z,22.00
2022-10-14T09:35:29.595Z,20.80
2022-10-14T09:37:57.427Z,20.30
2022-10-14T09:40:37.569Z,22.20
2022-10-14T09:43:08.447Z,22.10
2022-10-14T09:45:59.882Z,20.30
2022-10-14T09:48:33.905Z,25.20
2022-10-14T09:51:05.338Z,20.80
2022-10-14T09:53:45.473Z,23.50
2022-10-14T09:56:13.648Z,21.70
2022-10-14T09:58:55.433Z,28.60
2022-10-14T10:01:27.663Z,29.40
2022-10-14T10:03:56.623Z,31.30
2022-10-14T10:06:26.765Z,35.80
2022-10-14T10:08:56.562Z,32.30
2022-10-14T10:11:37.484Z,34.40
2022-10-14T10:14:28.608Z,29.60
2022-10-14T10:17:08.777Z,28.70
2022-10-14T10:19:43.738Z,26.60
2022-10-14T10:22:36.769Z,28.10
2022-10-14T10:25:06.042Z,23.70
2022-10-14T10:27:36.644Z,25.90
2022-10-14T10:30:27.471Z,23.90
2022-10-14T10:33:20.588Z,20.70
2022-10-14T10:36:15.376Z,21.50
2022-10-14T10:39:05.848Z,16.80
2022-10-14T10:41:58.730Z,20.00
2022-10-14T10:44:48.185Z,17.20
2022-10-14T10:48:02.637Z,17.00
2022-10-14T10:50:43.135Z,20.20
2022-10-14T10:53:27.330Z,18.10
2022-10-14T10:56:16.224Z,19.80
2022-10-14T10:58:58.992Z,18.70
2022-10-14T11:01:56.811Z,22.40
2022-10-14T11:04:33.914Z,21.20
2022-10-14T11:07:42.475Z,26.00
2022-10-14T11:10:48.699Z,16.00
2022-10-14T11:13:42.110Z,15.70
2022-10-14T11:16:34.328Z,17.90
2022-10-14T11:19:15.045Z,18.10
2022-10-14T11:21:51.905Z,16.60
2022-10-14T11:24:39.989Z,14.10
2022-10-14T11:27:24.052Z,16.10
2022-10-14T11:30:13.737Z,16.70
2022-10-14T11:32:50.332Z,15.10
2022-10-14T11:38:07.847Z,19.60
2022-10-14T11:40:41.644Z,13.40
2022-10-14T11:43:13.632Z,14.50
2022-10-14T11:45:47.253Z,16.90
2022-10-14T11:48:38.420Z,15.60
2022-10-14T11:51:12.580Z,13.10
2022-10-14T11:54:11.282Z,13.10
2022-10-14T11:56:53.159Z,14.90
2022-10-14T11:59:56.936Z,13.70
2022-10-14T12:02:52.809Z,15.20
2022-10-14T12:05:41.460Z,16.30
2022-10-14T12:08:30.404Z,16.10
2022-10-14T12:11:38.838Z,17.30
2022-10-14T12:14:20.141Z,16.90
2022-10-14T12:16:49.278Z,18.90
2022-10-14T12:19:27.476Z,17.30
2022-10-14T12:22:05.062Z,16.90
2022-10-14T12:24:38.527Z,14.90
2022-10-14T12:27:11.583Z,13.80
2022-10-14T12:29:59.158Z,16.40
2022-10-14T12:32:30.694Z,17.70
2022-10-14T12:35:04.417Z,12.90
2022-10-14T12:37:34.976Z,17.30
2022-10-14T12:40:03.550Z,14.50
2022-10-14T12:42:38.928Z,16.20
2022-10-14T12:45:22.478Z,18.10
2022-10-14T12:48:05.900Z,14.20
2022-10-14T12:50:39.725Z,14.50
2022-10-14T12:53:24.224Z,20.00
2022-10-14T12:55:55.534Z,17.60
2022-10-14T12:58:30.840Z,20.50
2022-10-14T13:01:22.182Z,21.90
2022-10-14T13:04:07.517Z,21.10
2022-10-14T13:06:37.338Z,16.40
2022-10-14T13:09:11.322Z,17.30
2022-10-14T13:11:41.573Z,20.10
2022-10-14T13:14:26.101Z,19.10
2022-10-14T13:17:24.481Z,23.70
2022-10-14T13:19:52.568Z,20.70
2022-10-14T13:22:33.122Z,22.20
2022-10-14T13:25:12.952Z,18.40
2022-10-14T13:27:46.047Z,18.40
2022-10-14T13:31:20.271Z,19.60
2022-10-14T13:33:54.143Z,20.70
2022-10-14T13:36:42.317Z,16.30
2022-10-14T13:39:10.505Z,17.80
2022-10-14T13:41:40.725Z,16.30
2022-10-14T13:44:12.440Z,23.00
2022-10-14T13:46:48.106Z,17.10
2022-10-14T13:49:36.427Z,19.60
2022-10-14T13:52:07.965Z,23.20
2022-10-14T13:54:35.867Z,17.60
2022-10-14T14:00:40.115Z,22.50
2022-10-14T14:03:27.087Z,17.60
2022-10-14T14:05:56.897Z,20.60
2022-10-14T14:08:39.095Z,24.00
2022-10-14T14:11:18.404Z,16.80
2022-10-14T14:14:08.954Z,18.10
2022-10-14T14:16:48.513Z,40.30
2022-10-14T14:19:30.559Z,17.30
2022-10-14T14:22:27.188Z,20.40
2022-10-14T14:25:33.596Z,19.80
2022-10-14T14:28:05.900Z,23.20
2022-10-14T14:30:37.192Z,17.70
2022-10-14T14:33:11.590Z,60.20
2022-10-14T14:35:43.954Z,33.90
2022-10-14T14:38:26.566Z,25.60
2022-10-14T14:41:25.646Z,23.90
2022-10-14T14:44:20.954Z,20.80
2022-10-14T14:46:46.960Z,17.10
2022-10-14T14:49:17.795Z,15.00
2022-10-14T14:51:49.420Z,15.60
2022-10-14T14:54:19.970Z,27.40
2022-10-14T14:57:00.695Z,16.80
2022-10-14T15:00:02.029Z,18.60
2022-10-14T15:02:33.782Z,19.40
2022-10-14T15:05:07.267Z,17.20
2022-10-14T15:07:36.314Z,17.10
2022-10-14T15:10:07.819Z,16.10
2022-10-14T15:12:42.114Z,15.60
2022-10-14T15:15:27.413Z,20.60
2022-10-14T15:18:13.738Z,20.20
2022-10-14T15:20:43.341Z,19.70
2022-10-14T15:24:00.376Z,24.50
2022-10-14T15:26:28.262Z,23.20
2022-10-14T15:29:22.706Z,21.20
2022-10-14T15:32:06.143Z,17.80
2022-10-14T15:34:37.572Z,17.10
2022-10-14T15:37:05.509Z,20.70
2022-10-14T15:39:33.376Z,21.10
2022-10-14T15:42:01.883Z,18.90
2022-10-14T15:44:29.872Z,18.00
2022-10-14T15:47:16.352Z,18.30
2022-10-14T15:49:45.906Z,28.90
2022-10-14T15:52:16.631Z,28.70
2022-10-14T15:54:45.952Z,27.10
2022-10-14T15:57:16.802Z,18.10
2022-10-14T15:59:48.610Z,17.70
2022-10-14T16:02:26.204Z,16.80
2022-10-14T16:05:18.831Z,17.90
2022-10-14T16:07:41.974Z,15.00
2022-10-14T16:10:13.274Z,16.90
2022-10-14T16:12:41.233Z,18.10
2022-10-14T16:15:34.285Z,18.90
2022-10-14T16:18:02.283Z,14.70
2022-10-14T16:20:30.838Z,20.30
2022-10-14T16:22:58.892Z,21.30
2022-10-14T16:25:44.577Z,55.10
2022-10-14T16:28:13.506Z,56.30
2022-10-14T16:30:48.640Z,15.20
2022-10-14T16:33:24.535Z,30.60
2022-10-14T16:35:56.844Z,19.10
2022-10-14T16:38:24.855Z,14.00
2022-10-14T16:40:57.384Z,23.40
2022-10-14T16:43:26.413Z,15.30
2022-10-14T16:45:59.966Z,202.70
2022-10-14T16:48:27.951Z,214.70
2022-10-14T16:50:56.248Z,930.00
2022-10-14T16:53:40.897Z,1296.00
2022-10-14T16:56:32.252Z,225.40
2022-10-14T16:59:00.927Z,923.20
2022-10-14T17:01:29.430Z,184.30
2022-10-14T17:03:57.953Z,1044.50
2022-10-14T17:06:26.553Z,58.80
2022-10-14T17:08:54.874Z,1213.10
2022-10-14T17:11:24.107Z,421.70
2022-10-14T17:13:53.621Z,862.20
2022-10-14T17:16:21.945Z,141.70
2022-10-14T17:18:49.823Z,1945.50
2022-10-14T17:21:18.444Z,537.30
2022-10-14T17:23:46.839Z,1999.90
2022-10-14T17:26:18.501Z,601.30
2022-10-14T17:28:47.775Z,1999.90
2022-10-14T17:31:19.250Z,1999.90
2022-10-14T17:33:47.513Z,1803.90
2022-10-14T17:36:21.316Z,524.50
2022-10-14T17:38:51.023Z,205.40
2022-10-14T17:41:20.740Z,1073.90
2022-10-14T17:43:54.190Z,746.20
2022-10-14T17:46:25.070Z,454.70
2022-10-14T17:48:56.307Z,341.50
2022-10-14T17:51:25.611Z,285.50
2022-10-14T17:53:59.285Z,91.80
2022-10-14T17:56:29.205Z,66.70
2022-10-14T17:59:00.562Z,169.30
2022-10-14T18:01:37.784Z,82.70
2022-10-14T18:04:11.735Z,41.40
2022-10-14T18:06:40.440Z,33.20
2022-10-14T18:09:09.629Z,17.20
2022-10-14T18:12:06.996Z,12.50
2022-10-14T18:14:29.453Z,17.70
2022-10-14T18:16:59.500Z,11.40
2022-10-14T18:19:27.721Z,27.90
2022-10-14T18:21:55.963Z,20.30
2022-10-14T18:24:23.895Z,38.50
2022-10-14T18:26:53.389Z,11.40
2022-10-14T18:29:21.290Z,14.30
2022-10-14T18:34:25.433Z,17.10
2022-10-14T18:36:53.463Z,17.90
2022-10-14T18:39:21.427Z,15.50
2022-10-14T18:41:49.261Z,12.90
2022-10-14T18:44:17.353Z,13.80
2022-10-14T18:46:47.642Z,14.70
2022-10-14T18:49:15.487Z,13.80
2022-10-14T18:51:43.500Z,11.90
2022-10-14T18:54:15.641Z,16.70
2022-10-14T18:56:44.630Z,24.10
2022-10-14T18:59:21.017Z,29.50
2022-10-14T19:01:53.442Z,16.70
2022-10-14T19:04:24.424Z,15.60
2022-10-14T19:06:52.379Z,15.40
2022-10-14T19:09:24.326Z,12.50
2022-10-14T19:11:52.806Z,15.60
2022-10-14T19:14:22.294Z,13.10
2022-10-14T19:16:50.509Z,13.20
2022-10-14T19:19:20.037Z,15.60
2022-10-14T19:21:51.010Z,12.60
2022-10-14T19:24:19.136Z,21.30
2022-10-14T19:26:47.833Z,45.40
2022-10-14T19:29:16.458Z,18.70
2022-10-14T19:31:44.432Z,33.00
2022-10-14T19:34:15.254Z,15.00
2022-10-14T19:36:44.039Z,15.70
2022-10-14T19:39:16.939Z,15.00
2022-10-14T19:41:46.750Z,15.70
2022-10-14T19:44:16.469Z,19.10
2022-10-14T19:46:45.355Z,13.10
2022-10-14T19:49:15.353Z,18.10
2022-10-14T19:51:44.085Z,12.90
2022-10-14T19:54:13.420Z,17.80
2022-10-14T19:56:42.029Z,49.80
2022-10-14T19:59:10.643Z,29.80
2022-10-14T20:01:38.777Z,17.10
2022-10-14T20:04:07.184Z,11.10
2022-10-14T20:06:36.679Z,14.00
2022-10-14T20:09:05.226Z,12.70
2022-10-14T20:11:34.417Z,11.30
2022-10-14T20:14:02.313Z,13.10
2022-10-14T20:16:30.480Z,19.10
2022-10-14T20:18:58.626Z,14.20
2022-10-14T20:21:26.543Z,11.30
2022-10-14T20:23:54.469Z,9.30
2022-10-14T20:26:22.412Z,33.20
2022-10-14T20:28:51.275Z,26.20
2022-10-14T20:31:23.192Z,27.40
2022-10-14T20:33:51.863Z,14.50
2022-10-14T20:36:21.671Z,20.70
2022-10-14T20:38:51.411Z,12.30
2022-10-14T20:41:21.691Z,15.60
2022-10-14T20:43:50.464Z,11.00
2022-10-14T20:46:18.924Z,14.60
2022-10-14T20:48:47.002Z,14.80
2022-10-14T20:51:17.996Z,14.30
2022-10-14T20:53:46.068Z,12.70
2022-10-14T20:56:15.244Z,11.60
2022-10-14T20:58:43.279Z,13.00
2022-10-14T21:01:16.576Z,12.70
2022-10-14T21:03:47.619Z,13.90
2022-10-14T21:06:21.150Z,12.10
2022-10-14T21:08:50.567Z,15.00
2022-10-14T21:11:21.971Z,12.30
2022-10-14T21:13:55.480Z,13.80
2022-10-14T21:16:24.659Z,16.90
2022-10-14T21:18:58.351Z,121.70
2022-10-14T21:21:28.593Z,41.70
2022-10-14T21:23:56.920Z,24.30
2022-10-14T21:26:25.481Z,13.00
2022-10-14T21:28:53.515Z,14.20
2022-10-14T21:31:22.166Z,17.20
2022-10-14T21:34:04.157Z,13.50
2022-10-14T21:36:35.233Z,14.00
2022-10-14T21:39:12.757Z,12.30
2022-10-14T21:41:42.177Z,12.70
2022-10-14T21:44:14.636Z,15.20
2022-10-14T21:46:42.662Z,13.80
2022-10-14T21:49:11.180Z,14.00
2022-10-14T21:51:53.956Z,11.70
2022-10-14T22:02:13.269Z,9.30
2022-10-14T22:04:41.202Z,11.00
2022-10-14T22:07:10.629Z,12.40
2022-10-14T22:09:38.546Z,12.80
2022-10-14T22:12:06.527Z,9.60
2022-10-14T22:14:34.493Z,9.90
2022-10-14T22:17:02.384Z,11.10
2022-10-14T22:19:30.694Z,9.40
2022-10-14T22:21:59.799Z,9.20
2022-10-14T22:24:28.275Z,14.70
2022-10-14T22:26:56.255Z,9.40
2022-10-14T22:29:24.141Z,12.10
2022-10-14T22:31:51.996Z,13.20
2022-10-14T22:34:19.935Z,11.60
2022-10-14T22:36:47.856Z,9.70
2022-10-14T22:39:17.151Z,11.80
2022-10-14T22:41:45.072Z,15.10
2022-10-14T22:44:13.037Z,10.50
2022-10-14T22:46:41.230Z,11.00
2022-10-14T22:49:09.288Z,10.30
2022-10-14T22:51:42.492Z,12.30
2022-10-14T22:54:11.062Z,10.60
2022-10-14T22:56:39.498Z,12.90
2022-10-14T22:59:11.992Z,19.50
2022-10-14T23:01:42.441Z,13.30
2022-10-14T23:04:11.602Z,16.70
2022-10-14T23:06:40.067Z,12.50
2022-10-14T23:09:10.247Z,15.30
2022-10-14T23:11:38.636Z,12.90
2022-10-14T23:14:07.585Z,19.00
2022-10-14T23:16:36.526Z,14.20
2022-10-14T23:19:04.778Z,13.20
2022-10-14T23:21:35.319Z,15.20
2022-10-14T23:24:10.337Z,19.80
2022-10-14T23:26:38.635Z,20.50
2022-10-14T23:29:09.998Z,21.40
2022-10-14T23:31:40.387Z,21.80
2022-10-14T23:34:12.481Z,23.70
2022-10-14T23:36:41.268Z,23.10
2022-10-14T23:39:09.560Z,21.70
2022-10-14T23:41:37.584Z,22.70
2022-10-14T23:44:05.671Z,21.50
2022-10-14T23:46:33.824Z,19.60
2022-10-14T23:49:07.310Z,20.00
2022-10-14T23:51:42.714Z,19.60
2022-10-14T23:54:11.666Z,18.00
2022-10-14T23:56:41.414Z,19.90
2022-10-14T23:59:09.270Z,20.20
